London City, United Kingdom

6:42 PM GMT on December 26, 2014 (GMT +0000)
London City | Change Station
CLOSE
Current Station
Airport
Location: London City,
Elevation: 16 ft
Nearby Weather Stations

Elev 16 ft 51.51 °N, 0.06 °E | Updated 22 minutes ago

Rain
Rain
41 °F
Feels Like 34 °F
N
13
Wind Variable Wind from SSE

Today
High -- | Low -- °F
--% Chance of Precip.
Yesterday
High -- | Low -- °F
Precip. -- in
8:04 AM 3:55 PM
Waxing Crescent, 28% visible
Pressure 29.98 in
Visibility 5.6 miles
Clouds Scattered Clouds 900 ft
Mostly Cloudy 1400 ft
Windchill 34 °F
Dew Point 39 °F
Humidity 93%
Rainfall 0.00 in
Snow Depth Not available.
UV 0 out of 12
Pollen Not available.
Air Quality Not available.
Flu Activity Not available.
METAR EGLC 261820Z 15011KT 120V190 9000 RA SCT009 BKN014 05/04 Q1015

More Conditions Fewer Conditions

Pressure 29.98 in
Visibility 5.6 miles
Clouds Scattered Clouds 900 ft
Mostly Cloudy 1400 ft
Windchill 34 °F
Dew Point 39 °F
Humidity 93%
Rainfall 0.00 in
Snow Depth Not available.
UV 0 out of 12
Pollen Not available.
Air Quality Not available.
Flu Activity Not available.
METAR EGLC 261820Z 15011KT 120V190 9000 RA SCT009 BKN014 05/04 Q1015

More Conditions Fewer Conditions

10-Day Weather Forecast

Almanac

Astronomy

Dec. 26, 2014 Rise Set
Actual Time
Civil Twilight
Nautical Twilight
Astronomical Twilight
Moon
Length of Visible Light
Length of Day
Tomorrow will be .
, % of the Moon is Illuminated

Today's Extremes

Country Highs Country Lows

Community

WunderPhotos

Upload Photos

1,780,668 photos uploaded!

WunderBlogs® & News

Nearby

Air Quality

  Air Quality AQ Index Pollutant
Not available.

Snow Depth

Station Depth Elevation

Earthquake Activity

City Distance Mag. Time & Date
Minimum magnitude displayed is 2.5.

Coastal Water Temperatures

Place Temperature

Nearby Weather Stations